Time;durP1;ratioP1;P1;durP2;ratioP2;P2;SDS_P1;SDS_P2;PMS_P1;PMS_P2;Temp;Humidity;BMP_temperature;BMP_pressure;BME280_temperature;BME280_humidity;BME280_pressure;Samples;Min_cycle;Max_cycle;Signal;HPM_P1;HPM_P2
2023/05/20 00:00:27;;;;;;;3.00;2.70;;;9.50;99.90;;;;;;5015154;28;20472;-54
2023/05/20 00:02:54;;;;;;;5.97;3.00;;;9.40;99.90;;;;;;5014519;28;20861;-55
2023/05/20 00:05:20;;;;;;;5.80;2.70;;;9.40;99.90;;;;;;5013630;28;20456;-53
2023/05/20 00:07:47;;;;;;;2.43;2.23;;;9.40;99.90;;;;;;5012181;28;21044;-54
2023/05/20 00:10:14;;;;;;;5.77;3.20;;;9.40;99.90;;;;;;5013812;28;20542;-54
2023/05/20 00:12:42;;;;;;;7.03;2.80;;;9.40;99.90;;;;;;5014422;28;20523;-54
2023/05/20 00:15:10;;;;;;;6.20;2.60;;;9.30;99.90;;;;;;5015285;28;20534;-56
2023/05/20 00:17:37;;;;;;;3.57;3.17;;;9.30;99.90;;;;;;5013843;28;20515;-54
2023/05/20 00:20:05;;;;;;;2.47;2.37;;;9.30;99.90;;;;;;5013660;28;20550;-55
2023/05/20 00:22:31;;;;;;;8.33;2.63;;;9.30;99.90;;;;;;5006494;28;20455;-55
2023/05/20 00:24:58;;;;;;;2.80;2.60;;;9.30;99.90;;;;;;5012617;28;20554;-53
2023/05/20 00:27:25;;;;;;;3.67;2.80;;;9.30;99.90;;;;;;5006721;28;20582;-54
2023/05/20 00:29:53;;;;;;;11.67;3.20;;;9.40;99.90;;;;;;5013617;28;21044;-55
2023/05/20 00:32:19;;;;;;;4.37;3.00;;;9.30;99.90;;;;;;5014266;28;20570;-56
2023/05/20 00:34:55;;;;;;;3.07;2.87;;;9.30;99.90;;;;;;5013221;28;21062;-55
2023/05/20 00:37:22;;;;;;;3.83;2.90;;;9.30;99.90;;;;;;5010574;28;20483;-55
2023/05/20 00:39:48;;;;;;;3.13;2.83;;;9.30;99.90;;;;;;5012333;28;20562;-57
2023/05/20 00:42:20;;;;;;;10.57;3.90;;;9.30;99.90;;;;;;5013673;28;20540;-55
2023/05/20 00:44:46;;;;;;;3.60;3.30;;;9.30;99.90;;;;;;5014044;28;20471;-54
2023/05/20 00:47:15;;;;;;;4.70;3.10;;;9.30;99.90;;;;;;5011846;28;20586;-55
2023/05/20 00:49:41;;;;;;;4.17;3.77;;;9.30;99.90;;;;;;5006743;28;20812;-54
2023/05/20 00:52:08;;;;;;;4.40;2.93;;;9.20;99.90;;;;;;5012042;28;20574;-55
2023/05/20 00:54:35;;;;;;;5.03;3.07;;;9.20;99.90;;;;;;5011807;28;20547;-54
2023/05/20 00:57:03;;;;;;;4.30;3.13;;;9.30;99.90;;;;;;5011053;28;20566;-55
2023/05/20 00:59:29;;;;;;;2.77;2.57;;;9.20;99.90;;;;;;5011875;28;21055;-54
2023/05/20 01:01:56;;;;;;;4.47;2.87;;;9.10;99.90;;;;;;5009644;28;20469;-52
2023/05/20 01:04:25;;;;;;;3.30;2.70;;;9.10;99.90;;;;;;5006485;28;20547;-52
2023/05/20 01:06:52;;;;;;;3.50;3.30;;;9.00;99.90;;;;;;5006301;28;20494;-52
2023/05/20 01:09:18;;;;;;;6.23;2.83;;;8.90;99.90;;;;;;5011367;28;20551;-52
2023/05/20 01:11:51;;;;;;;3.40;3.10;;;9.00;99.90;;;;;;5010760;28;20547;-52
2023/05/20 01:14:21;;;;;;;2.90;2.80;;;8.90;99.90;;;;;;5011755;28;20467;-51
2023/05/20 01:16:49;;;;;;;3.13;2.93;;;8.90;99.90;;;;;;5006731;28;21067;-52
2023/05/20 01:19:27;;;;;;;2.77;2.57;;;8.90;99.90;;;;;;5012780;28;20503;-52
2023/05/20 01:21:55;;;;;;;3.33;3.00;;;8.80;99.90;;;;;;5014285;28;20559;-52
2023/05/20 01:24:23;;;;;;;3.50;3.00;;;8.80;99.90;;;;;;5013800;28;20518;-51
2023/05/20 01:26:49;;;;;;;3.13;2.83;;;8.90;99.90;;;;;;5011119;28;21097;-52
2023/05/20 01:29:17;;;;;;;4.13;2.80;;;8.80;99.90;;;;;;5013375;28;20551;-52
2023/05/20 01:31:46;;;;;;;3.33;2.97;;;8.80;99.90;;;;;;5012382;28;20464;-51
2023/05/20 01:34:13;;;;;;;3.30;3.10;;;8.80;99.90;;;;;;5008519;28;20487;-52
2023/05/20 01:36:40;;;;;;;3.90;3.57;;;8.80;99.90;;;;;;5013270;28;20582;-51
2023/05/20 01:39:07;;;;;;;2.67;2.50;;;8.80;99.90;;;;;;5005641;28;20919;-51
2023/05/20 01:41:36;;;;;;;4.30;3.00;;;8.80;99.90;;;;;;5013895;28;20500;-51
2023/05/20 01:44:03;;;;;;;4.70;2.90;;;8.80;99.90;;;;;;5012371;28;20552;-51
2023/05/20 01:46:32;;;;;;;3.60;3.37;;;8.80;99.90;;;;;;5013658;28;20567;-51
2023/05/20 01:48:59;;;;;;;2.90;2.60;;;8.80;99.90;;;;;;5010697;28;20557;-51
2023/05/20 01:51:26;;;;;;;4.27;2.73;;;8.70;99.90;;;;;;5013321;28;20965;-52
2023/05/20 01:53:53;;;;;;;6.47;3.20;;;8.70;99.90;;;;;;5011467;28;20480;-51
2023/05/20 01:56:21;;;;;;;4.00;2.80;;;8.70;99.90;;;;;;5011315;28;20517;-51
2023/05/20 01:58:48;;;;;;;3.10;2.90;;;8.80;99.90;;;;;;5013152;28;20884;-51
2023/05/20 02:01:15;;;;;;;2.50;2.40;;;8.70;99.90;;;;;;5007287;28;20563;-51
2023/05/20 02:03:41;;;;;;;4.67;3.17;;;8.80;99.90;;;;;;5011496;28;20543;-52
2023/05/20 02:06:08;;;;;;;3.40;3.10;;;8.80;99.90;;;;;;5005564;28;20514;-52
2023/05/20 02:08:34;;;;;;;3.77;3.13;;;8.80;99.90;;;;;;5012158;28;20874;-52
2023/05/20 02:11:01;;;;;;;3.97;3.30;;;8.80;99.90;;;;;;5012440;28;20995;-51
2023/05/20 02:13:27;;;;;;;4.03;3.00;;;8.70;99.90;;;;;;5012230;28;21070;-51
2023/05/20 02:15:55;;;;;;;2.33;2.23;;;8.70;99.90;;;;;;5011777;28;20922;-51
2023/05/20 02:18:22;;;;;;;2.93;2.73;;;8.70;99.90;;;;;;5012224;28;20514;-54
2023/05/20 02:20:48;;;;;;;3.57;2.90;;;8.70;99.90;;;;;;5012134;28;20496;-51
2023/05/20 02:23:15;;;;;;;2.83;2.63;;;8.70;99.90;;;;;;5011692;28;20538;-51
2023/05/20 02:25:41;;;;;;;3.63;3.33;;;8.70;99.90;;;;;;5009021;28;21107;-53
2023/05/20 02:28:09;;;;;;;3.17;2.87;;;8.70;99.90;;;;;;5011477;28;20957;-51
2023/05/20 02:30:36;;;;;;;3.40;3.10;;;8.70;99.90;;;;;;5011440;28;20547;-53
2023/05/20 02:33:04;;;;;;;3.53;2.70;;;8.70;99.90;;;;;;5011727;28;20518;-51
2023/05/20 02:35:30;;;;;;;2.73;2.53;;;8.60;99.90;;;;;;5008909;28;20518;-53
2023/05/20 02:37:57;;;;;;;2.90;2.70;;;8.60;99.90;;;;;;5012193;28;20472;-52
2023/05/20 02:40:23;;;;;;;2.90;2.70;;;8.60;99.90;;;;;;5003414;28;20494;-52
2023/05/20 02:42:50;;;;;;;4.83;2.60;;;8.60;99.90;;;;;;5009702;28;20491;-53
2023/05/20 02:45:16;;;;;;;3.47;3.27;;;8.60;99.90;;;;;;5011571;28;20495;-52
2023/05/20 02:47:43;;;;;;;3.50;2.70;;;8.60;99.90;;;;;;5010234;28;21333;-52
2023/05/20 02:50:11;;;;;;;5.50;3.33;;;8.50;99.90;;;;;;5005281;28;20502;-52
2023/05/20 02:52:38;;;;;;;3.93;3.20;;;8.50;99.90;;;;;;5008894;28;20514;-52
2023/05/20 02:55:06;;;;;;;4.13;2.73;;;8.50;99.90;;;;;;5003035;28;20454;-52
2023/05/20 02:57:35;;;;;;;5.87;3.00;;;8.50;99.90;;;;;;5008089;28;20488;-52
2023/05/20 03:00:03;;;;;;;3.43;3.13;;;8.50;99.90;;;;;;5005197;28;21014;-52
2023/05/20 03:02:30;;;;;;;3.30;3.00;;;8.50;99.90;;;;;;5009717;28;20565;-52
2023/05/20 03:04:56;;;;;;;3.07;2.83;;;8.40;99.90;;;;;;5010424;28;20542;-52
2023/05/20 03:07:24;;;;;;;5.47;3.20;;;8.40;99.90;;;;;;5009977;28;20487;-52
2023/05/20 03:09:51;;;;;;;5.70;3.30;;;8.40;99.90;;;;;;5009864;28;20517;-51
2023/05/20 03:12:18;;;;;;;5.73;2.93;;;8.40;99.90;;;;;;5009987;28;20972;-51
2023/05/20 03:14:45;;;;;;;4.47;2.73;;;8.40;99.90;;;;;;5008407;28;20475;-52
2023/05/20 03:17:11;;;;;;;3.43;2.40;;;8.40;99.90;;;;;;5008905;28;20526;-51
2023/05/20 03:19:38;;;;;;;3.23;3.00;;;8.40;99.90;;;;;;5010103;28;20554;-51
2023/05/20 03:22:05;;;;;;;6.00;3.10;;;8.40;99.90;;;;;;5010648;28;20558;-51
2023/05/20 03:24:33;;;;;;;4.17;3.10;;;8.40;99.90;;;;;;5010151;28;20491;-51
2023/05/20 03:27:00;;;;;;;3.10;2.73;;;8.40;99.90;;;;;;5009292;28;20488;-53
2023/05/20 03:29:26;;;;;;;6.00;3.33;;;8.40;99.90;;;;;;5005697;28;20472;-52
2023/05/20 03:31:53;;;;;;;3.20;3.00;;;8.40;99.90;;;;;;5008723;28;20542;-52
2023/05/20 03:34:19;;;;;;;2.80;2.60;;;8.40;99.90;;;;;;5009257;28;20480;-52
2023/05/20 03:36:46;;;;;;;3.90;3.37;;;8.40;99.90;;;;;;5008618;28;20542;-52
2023/05/20 03:39:13;;;;;;;3.50;3.00;;;8.50;99.90;;;;;;5010135;28;20953;-52
2023/05/20 03:41:40;;;;;;;8.03;3.13;;;8.50;99.90;;;;;;5010650;28;20491;-52
2023/05/20 03:44:07;;;;;;;5.63;2.80;;;8.60;99.90;;;;;;5008705;28;20487;-51
2023/05/20 03:46:34;;;;;;;2.87;2.67;;;8.60;99.90;;;;;;5004753;28;21044;-52
2023/05/20 03:49:01;;;;;;;5.77;3.27;;;8.60;99.90;;;;;;5007292;28;20471;-52
2023/05/20 03:51:28;;;;;;;6.33;3.27;;;8.70;99.90;;;;;;5009420;28;20506;-51
2023/05/20 03:53:54;;;;;;;5.07;3.33;;;8.70;99.90;;;;;;5010668;28;20951;-51
2023/05/20 03:56:21;;;;;;;3.27;2.83;;;8.80;99.90;;;;;;5008454;28;20517;-51
2023/05/20 03:58:49;;;;;;;6.00;3.20;;;8.80;99.90;;;;;;5008471;28;21039;-53
2023/05/20 04:01:16;;;;;;;6.50;3.70;;;8.90;99.90;;;;;;5006944;28;20501;-53
2023/05/20 04:03:42;;;;;;;3.43;2.70;;;9.00;99.90;;;;;;5006497;28;20556;-51
2023/05/20 04:06:09;;;;;;;3.70;3.40;;;9.00;99.90;;;;;;5008390;28;20514;-52
2023/05/20 04:08:35;;;;;;;4.80;3.00;;;9.10;99.90;;;;;;5009982;28;20496;-51
2023/05/20 04:11:02;;;;;;;4.83;3.80;;;9.20;99.90;;;;;;5010006;28;20469;-52
2023/05/20 04:13:29;;;;;;;4.90;3.67;;;9.20;99.90;;;;;;5008318;28;20524;-51
2023/05/20 04:15:57;;;;;;;3.20;3.00;;;9.30;99.90;;;;;;5007541;28;20519;-52
2023/05/20 04:18:23;;;;;;;5.30;4.23;;;9.30;99.90;;;;;;5003416;28;20488;-53
2023/05/20 04:20:54;;;;;;;5.60;3.77;;;9.30;99.90;;;;;;5008895;28;20475;-53
2023/05/20 04:23:20;;;;;;;5.03;3.23;;;9.40;99.90;;;;;;5010675;28;20484;-51
2023/05/20 04:25:47;;;;;;;5.50;3.73;;;9.40;99.90;;;;;;5024664;23;20581;-50
2023/05/20 04:28:15;;;;;;;4.70;3.43;;;9.50;99.90;;;;;;5017697;28;20527;-50
2023/05/20 04:30:43;;;;;;;3.50;3.10;;;9.50;99.90;;;;;;5022824;28;20467;-52
2023/05/20 04:33:11;;;;;;;5.07;3.90;;;9.60;99.90;;;;;;5030467;28;20482;-52
2023/05/20 04:35:40;;;;;;;6.57;4.13;;;9.60;99.90;;;;;;5034584;28;20505;-52
2023/05/20 04:38:07;;;;;;;5.00;3.73;;;9.70;99.90;;;;;;5007541;28;20447;-52
2023/05/20 04:40:33;;;;;;;3.60;3.30;;;9.70;99.90;;;;;;5013059;28;20474;-52
2023/05/20 04:43:00;;;;;;;5.93;3.10;;;9.90;99.90;;;;;;5013084;28;20895;-52
2023/05/20 04:45:27;;;;;;;3.93;3.53;;;9.90;99.90;;;;;;5012904;28;20477;-52
2023/05/20 04:47:53;;;;;;;6.83;3.90;;;9.90;99.90;;;;;;5015412;28;20491;-51
2023/05/20 04:50:21;;;;;;;6.33;3.27;;;9.90;99.90;;;;;;5009321;28;20566;-50
2023/05/20 04:52:48;;;;;;;3.57;3.23;;;10.00;99.90;;;;;;5014037;28;20474;-52
2023/05/20 04:55:15;;;;;;;6.80;3.30;;;10.00;99.90;;;;;;5011952;28;20574;-51
2023/05/20 04:57:42;;;;;;;5.60;3.30;;;10.00;99.90;;;;;;5011431;28;20488;-50
2023/05/20 05:00:09;;;;;;;6.17;3.70;;;10.00;99.90;;;;;;5013829;28;20843;-51
2023/05/20 05:02:36;;;;;;;5.80;3.23;;;10.00;99.90;;;;;;5013700;28;20495;-51
2023/05/20 05:05:03;;;;;;;6.83;3.23;;;10.00;99.90;;;;;;5013923;28;20491;-52
2023/05/20 05:07:31;;;;;;;10.90;4.57;;;10.00;99.90;;;;;;5012620;28;20547;-51
2023/05/20 05:09:57;;;;;;;7.00;3.73;;;10.00;99.90;;;;;;5012900;28;20495;-50
2023/05/20 05:12:24;;;;;;;9.77;3.37;;;10.10;99.90;;;;;;5012344;28;21000;-51
2023/05/20 05:14:50;;;;;;;8.23;4.27;;;10.10;99.90;;;;;;5012627;28;21048;-50
2023/05/20 05:17:17;;;;;;;5.43;3.90;;;10.20;99.90;;;;;;5013340;28;20515;-50
2023/05/20 05:19:44;;;;;;;8.00;3.67;;;10.20;99.90;;;;;;5013148;28;20556;-50
2023/05/20 05:22:10;;;;;;;4.93;3.90;;;10.20;99.90;;;;;;5013004;28;20462;-51
2023/05/20 05:24:38;;;;;;;5.70;3.17;;;10.20;99.90;;;;;;5012940;28;20526;-51
2023/05/20 05:27:05;;;;;;;5.90;3.80;;;10.20;99.90;;;;;;5008943;28;20487;-51
2023/05/20 05:29:32;;;;;;;7.90;3.80;;;10.30;99.90;;;;;;5012198;28;21061;-51
2023/05/20 05:31:58;;;;;;;6.07;4.07;;;10.20;99.90;;;;;;5013589;28;21017;-51
2023/05/20 05:34:25;;;;;;;4.90;3.63;;;10.30;99.90;;;;;;5013265;28;20579;-52
2023/05/20 05:36:51;;;;;;;4.10;3.73;;;10.30;99.90;;;;;;5012997;28;20520;-52
2023/05/20 05:39:18;;;;;;;3.67;3.37;;;10.40;99.90;;;;;;5013701;28;20510;-52
2023/05/20 05:41:46;;;;;;;6.40;3.93;;;10.40;99.90;;;;;;5008570;28;20491;-53
2023/05/20 05:44:13;;;;;;;5.03;4.00;;;10.40;99.90;;;;;;5013210;28;21302;-53
2023/05/20 05:46:40;;;;;;;8.27;4.50;;;10.50;99.90;;;;;;5012214;28;20487;-51
2023/05/20 05:49:06;;;;;;;15.33;3.93;;;10.50;99.90;;;;;;5013656;28;20535;-52
2023/05/20 05:51:33;;;;;;;5.63;3.57;;;10.50;99.90;;;;;;5011936;28;20551;-52
2023/05/20 05:54:00;;;;;;;4.03;3.63;;;10.60;99.90;;;;;;5011335;28;20583;-52
2023/05/20 05:56:26;;;;;;;7.67;3.37;;;10.60;99.90;;;;;;5012775;28;20515;-52
2023/05/20 05:58:54;;;;;;;7.60;3.77;;;10.70;99.90;;;;;;5014052;28;20994;-52
2023/05/20 06:01:20;;;;;;;11.23;5.10;;;10.70;99.90;;;;;;5011083;28;20846;-52
2023/05/20 06:03:47;;;;;;;6.57;3.70;;;10.70;99.90;;;;;;5012774;28;20487;-52
2023/05/20 06:06:13;;;;;;;4.17;3.57;;;10.70;99.90;;;;;;5011782;28;20559;-52
2023/05/20 06:08:40;;;;;;;5.50;4.20;;;10.80;99.90;;;;;;5008638;28;20467;-51
2023/05/20 06:11:07;;;;;;;5.73;3.77;;;10.80;99.90;;;;;;5003990;28;20542;-52
2023/05/20 06:13:33;;;;;;;7.73;2.93;;;10.80;99.90;;;;;;5013036;28;20494;-52
2023/05/20 06:16:01;;;;;;;6.20;3.97;;;10.90;99.90;;;;;;5011810;28;20587;-54
2023/05/20 06:18:28;;;;;;;5.23;3.97;;;11.00;99.90;;;;;;5011683;28;20500;-51
2023/05/20 06:20:56;;;;;;;5.90;4.87;;;11.00;99.90;;;;;;5009704;28;20491;-52
2023/05/20 06:23:22;;;;;;;7.00;3.80;;;11.10;99.90;;;;;;5011326;28;20586;-52
2023/05/20 06:25:50;;;;;;;5.70;4.33;;;11.10;99.90;;;;;;5008459;28;20556;-52
2023/05/20 06:28:16;;;;;;;11.40;4.17;;;11.20;99.90;;;;;;5011429;28;20964;-52
2023/05/20 06:30:43;;;;;;;5.43;4.20;;;11.30;99.90;;;;;;5010871;28;20487;-52
2023/05/20 06:33:11;;;;;;;11.83;5.10;;;11.40;99.90;;;;;;5012147;28;20506;-52
2023/05/20 06:35:37;;;;;;;9.63;4.80;;;11.40;99.90;;;;;;5011883;28;20487;-52
2023/05/20 06:38:04;;;;;;;8.53;4.83;;;11.50;99.90;;;;;;5009065;28;20498;-52
2023/05/20 06:40:31;;;;;;;10.80;4.93;;;11.50;99.90;;;;;;5012922;28;20467;-51
2023/05/20 06:42:57;;;;;;;7.10;4.37;;;11.50;99.90;;;;;;5011497;28;20491;-51
2023/05/20 06:45:24;;;;;;;4.27;3.83;;;11.60;99.90;;;;;;5012929;28;20495;-53
2023/05/20 06:47:52;;;;;;;3.97;3.67;;;11.60;99.90;;;;;;5011614;28;20491;-52
2023/05/20 06:50:20;;;;;;;4.87;3.80;;;11.70;99.90;;;;;;5011209;28;20977;-52
2023/05/20 06:52:47;;;;;;;4.40;3.90;;;11.80;99.90;;;;;;5011747;28;20494;-52
2023/05/20 06:55:13;;;;;;;5.77;4.17;;;11.80;99.90;;;;;;5022682;28;20830;-52
2023/05/20 06:57:40;;;;;;;5.57;4.40;;;11.70;99.90;;;;;;5027677;28;20506;-52
2023/05/20 07:00:08;;;;;;;4.97;3.97;;;11.60;99.90;;;;;;5028264;28;20463;-51
2023/05/20 07:02:34;;;;;;;7.30;3.83;;;11.60;99.90;;;;;;5023332;28;20471;-51
2023/05/20 07:05:01;;;;;;;6.90;5.07;;;11.60;99.90;;;;;;5014933;28;20539;-54
2023/05/20 07:07:29;;;;;;;7.40;4.50;;;11.60;99.90;;;;;;5010382;28;22111;-53
2023/05/20 07:09:55;;;;;;;8.30;5.07;;;11.60;99.90;;;;;;5010473;28;20498;-50
2023/05/20 07:12:22;;;;;;;15.47;5.00;;;11.60;99.90;;;;;;5005478;28;20499;-50
2023/05/20 07:14:48;;;;;;;6.03;4.70;;;11.60;99.90;;;;;;5010374;28;20581;-51
2023/05/20 07:17:15;;;;;;;10.80;5.63;;;11.60;99.90;;;;;;5010901;28;20507;-51
2023/05/20 07:19:41;;;;;;;9.47;5.07;;;11.70;99.90;;;;;;5012224;28;20607;-51
2023/05/20 07:22:08;;;;;;;14.13;4.73;;;11.70;99.90;;;;;;5006914;28;20555;-51
2023/05/20 07:24:36;;;;;;;12.23;4.40;;;11.70;99.90;;;;;;5005528;28;20494;-52
2023/05/20 07:27:03;;;;;;;7.97;4.30;;;11.70;99.90;;;;;;5008076;28;21367;-51
2023/05/20 07:29:30;;;;;;;5.87;4.80;;;11.80;99.90;;;;;;5010844;28;20546;-52
2023/05/20 07:31:56;;;;;;;8.20;4.73;;;11.80;99.90;;;;;;5008672;28;20463;-51
2023/05/20 07:34:23;;;;;;;6.80;4.60;;;11.90;99.90;;;;;;5010147;28;20587;-51
2023/05/20 07:36:50;;;;;;;10.00;4.13;;;12.00;99.90;;;;;;5009063;28;20538;-52
2023/05/20 07:39:17;;;;;;;7.20;4.30;;;12.10;99.90;;;;;;5004264;28;20954;-52
2023/05/20 07:41:45;;;;;;;6.37;3.93;;;12.10;99.90;;;;;;5009790;28;20550;-52
2023/05/20 07:44:12;;;;;;;5.73;3.83;;;12.20;99.90;;;;;;5009292;28;20463;-52
2023/05/20 07:46:40;;;;;;;9.60;4.73;;;12.30;99.90;;;;;;5018834;28;20491;-52
2023/05/20 07:49:07;;;;;;;5.77;4.40;;;12.30;99.90;;;;;;5015665;28;20487;-53
2023/05/20 07:51:33;;;;;;;5.60;4.47;;;12.30;99.90;;;;;;5017835;28;20470;-52
2023/05/20 07:54:00;;;;;;;4.77;4.30;;;12.30;99.90;;;;;;5020493;28;20478;-52
2023/05/20 07:56:27;;;;;;;5.50;4.30;;;12.50;99.90;;;;;;5009044;28;20527;-52
2023/05/20 07:58:58;;;;;;;5.20;4.03;;;12.50;99.90;;;;;;5010949;28;20470;-51
2023/05/20 08:01:24;;;;;;;6.07;3.97;;;12.60;99.90;;;;;;5011746;28;20546;-51
2023/05/20 08:03:51;;;;;;;7.17;5.20;;;12.70;99.90;;;;;;5007726;28;20481;-51
2023/05/20 08:06:19;;;;;;;11.33;4.67;;;12.80;99.90;;;;;;5005659;28;20515;-51
2023/05/20 08:08:46;;;;;;;8.90;4.90;;;12.90;99.90;;;;;;5009963;28;20570;-51
2023/05/20 08:11:13;;;;;;;9.60;3.77;;;13.00;99.90;;;;;;5015135;28;20525;-52
2023/05/20 08:13:39;;;;;;;4.10;3.80;;;13.00;99.90;;;;;;5014490;28;20554;-50
2023/05/20 08:16:07;;;;;;;4.97;3.80;;;13.10;99.90;;;;;;5008854;28;20590;-51
2023/05/20 08:18:35;;;;;;;4.17;3.80;;;13.20;99.90;;;;;;5012322;28;20513;-51
2023/05/20 08:21:01;;;;;;;7.93;3.97;;;13.20;99.90;;;;;;5013134;28;20495;-51
2023/05/20 08:23:28;;;;;;;6.27;4.27;;;13.30;99.90;;;;;;5013072;28;21044;-51
2023/05/20 08:25:56;;;;;;;5.30;4.10;;;13.40;99.90;;;;;;5002522;28;20555;-51
2023/05/20 08:28:22;;;;;;;4.43;3.80;;;13.40;99.90;;;;;;5014554;28;20515;-51
2023/05/20 08:30:50;;;;;;;9.50;4.50;;;13.50;99.90;;;;;;5010673;28;20938;-50
2023/05/20 08:33:20;;;;;;;10.90;4.63;;;13.60;99.90;;;;;;5016524;28;20463;-50
2023/05/20 08:35:47;;;;;;;8.80;4.47;;;13.80;99.90;;;;;;5012583;28;20492;-51
2023/05/20 08:38:13;;;;;;;4.83;3.97;;;14.00;99.90;;;;;;5013600;28;20496;-51
2023/05/20 08:40:40;;;;;;;8.30;5.33;;;14.10;99.90;;;;;;5010029;28;20515;-50
2023/05/20 08:43:08;;;;;;;4.83;4.30;;;14.10;99.90;;;;;;5011637;28;20551;-50
2023/05/20 08:45:37;;;;;;;6.63;4.20;;;14.10;99.90;;;;;;5014241;28;20949;-51
2023/05/20 08:48:05;;;;;;;4.60;4.20;;;14.20;99.90;;;;;;5010207;28;21013;-50
2023/05/20 08:50:33;;;;;;;4.80;4.30;;;14.20;99.90;;;;;;5008093;28;20514;-50
2023/05/20 08:53:00;;;;;;;4.53;4.10;;;14.20;99.90;;;;;;5014836;28;20471;-51
2023/05/20 08:55:33;;;;;;;5.00;4.50;;;14.10;99.90;;;;;;5009569;28;20579;-50
2023/05/20 08:58:00;;;;;;;8.73;4.07;;;14.10;99.90;;;;;;5010878;28;20492;-49
2023/05/20 09:00:27;;;;;;;10.50;4.07;;;14.20;99.90;;;;;;5013431;28;20475;-50
2023/05/20 09:02:54;;;;;;;8.87;4.00;;;14.30;99.90;;;;;;5011551;28;20471;-50
2023/05/20 09:05:21;;;;;;;5.97;4.90;;;14.40;99.90;;;;;;5011256;28;20904;-57
2023/05/20 09:07:49;;;;;;;4.93;4.43;;;14.50;99.90;;;;;;5010300;28;20485;-50
2023/05/20 09:10:16;;;;;;;7.43;4.40;;;14.60;99.90;;;;;;5005501;28;20471;-51
2023/05/20 09:12:43;;;;;;;9.30;4.40;;;14.40;85.50;;;;;;5011549;28;20463;-51
2023/05/20 09:15:09;;;;;;;6.83;4.40;;;14.50;99.90;;;;;;5010742;28;20566;-51
2023/05/20 09:17:36;;;;;;;5.77;3.80;;;14.60;99.90;;;;;;5009830;28;20558;-50
2023/05/20 09:20:08;;;;;;;12.43;4.30;;;15.00;99.90;;;;;;5005279;28;20463;-52
2023/05/20 09:22:35;;;;;;;4.63;4.10;;;15.20;34.50;;;;;;5012075;28;20879;-53
2023/05/20 09:25:03;;;;;;;7.90;4.10;;;15.20;48.30;;;;;;5010727;28;20959;-52
2023/05/20 09:27:29;;;;;;;5.23;3.73;;;15.30;37.50;;;;;;5002687;28;20583;-52
2023/05/20 09:29:56;;;;;;;4.43;4.00;;;15.30;45.90;;;;;;5011301;28;20530;-53
2023/05/20 09:32:25;;;;;;;4.63;4.13;;;15.40;47.30;;;;;;5009796;28;20518;-53
2023/05/20 09:34:52;;;;;;;7.37;4.03;;;15.40;52.30;;;;;;5009453;28;20483;-53
2023/05/20 09:37:20;;;;;;;5.00;4.30;;;15.40;48.40;;;;;;5011506;28;20507;-52
2023/05/20 09:39:55;;;;;;;6.10;4.63;;;15.40;67.40;;;;;;5012849;28;20498;-52
2023/05/20 09:42:27;;;;;;;4.80;3.90;;;15.30;64.80;;;;;;5011676;28;20478;-51
2023/05/20 09:44:55;;;;;;;4.20;3.80;;;15.30;50.20;;;;;;5011553;28;20456;-52
2023/05/20 09:47:23;;;;;;;4.57;3.60;;;15.30;65.70;;;;;;5009044;28;20985;-53
2023/05/20 09:49:51;;;;;;;4.73;4.27;;;15.20;52.80;;;;;;5007137;28;20540;-54
2023/05/20 09:52:18;;;;;;;9.23;4.57;;;14.80;56.50;;;;;;5009205;28;20487;-51
2023/05/20 09:54:46;;;;;;;4.57;4.17;;;14.80;28.30;;;;;;5012999;28;20487;-52
2023/05/20 09:57:13;;;;;;;6.30;4.70;;;14.80;33.10;;;;;;5010114;28;20544;-53
2023/05/20 09:59:41;;;;;;;6.70;4.80;;;14.80;39.60;;;;;;5012925;28;20447;-53
2023/05/20 10:02:09;;;;;;;5.87;3.90;;;15.10;33.10;;;;;;5007796;28;20504;-53
2023/05/20 10:04:41;;;;;;;6.97;5.20;;;15.20;43.50;;;;;;5010146;28;20547;-53
2023/05/20 10:07:25;;;;;;;9.53;5.87;;;15.10;54.00;;;;;;5012581;28;20472;-52
2023/05/20 10:10:03;;;;;;;4.87;4.33;;;15.10;47.90;;;;;;5012652;28;20452;-52
2023/05/20 10:12:34;;;;;;;8.73;5.40;;;15.20;45.30;;;;;;5022265;28;20466;-54
2023/05/20 10:15:14;;;;;;;8.50;5.63;;;15.00;39.20;;;;;;5020410;28;20484;-52
2023/05/20 10:17:51;;;;;;;6.33;4.90;;;15.10;37.90;;;;;;5009486;28;20913;-54
2023/05/20 10:20:17;;;;;;;6.67;5.30;;;15.20;34.00;;;;;;5009458;28;21193;-53
2023/05/20 10:22:56;;;;;;;4.97;4.03;;;15.20;40.30;;;;;;5007748;28;20455;-54
2023/05/20 10:25:25;;;;;;;4.80;4.33;;;15.30;31.70;;;;;;5006064;28;20456;-54
2023/05/20 10:27:52;;;;;;;6.60;5.50;;;15.20;41.40;;;;;;5009971;28;20495;-51
2023/05/20 10:30:21;;;;;;;6.50;5.00;;;15.00;48.00;;;;;;5015367;28;20464;-52
2023/05/20 10:32:55;;;;;;;4.83;4.50;;;15.10;35.50;;;;;;5009574;28;20539;-52
2023/05/20 10:35:25;;;;;;;5.00;4.53;;;15.20;27.80;;;;;;5010461;28;20842;-51
2023/05/20 10:37:51;;;;;;;6.70;4.57;;;15.30;27.50;;;;;;5008556;28;20562;-51
2023/05/20 10:40:20;;;;;;;5.70;4.53;;;15.40;41.80;;;;;;5010411;28;20495;-53
2023/05/20 10:42:46;;;;;;;5.20;4.70;;;15.40;33.60;;;;;;5009050;28;20463;-52
2023/05/20 10:45:26;;;;;;;5.00;4.50;;;15.50;39.80;;;;;;5012480;28;20448;-52
2023/05/20 10:47:57;;;;;;;7.10;5.50;;;15.30;43.00;;;;;;5010464;28;20479;-51
2023/05/20 10:50:28;;;;;;;10.13;5.77;;;15.20;34.80;;;;;;5011241;28;20920;-54
2023/05/20 10:52:55;;;;;;;5.73;5.07;;;15.30;36.80;;;;;;5003153;28;20977;-54
2023/05/20 10:55:23;;;;;;;6.23;5.30;;;15.20;27.40;;;;;;5004969;28;20574;-54
2023/05/20 10:57:51;;;;;;;7.23;5.77;;;15.30;30.90;;;;;;4999846;28;20488;-54
2023/05/20 11:00:19;;;;;;;13.00;5.30;;;15.40;34.20;;;;;;5009862;28;20459;-51
2023/05/20 11:02:49;;;;;;;6.17;5.57;;;15.50;40.60;;;;;;5007921;28;20463;-52
2023/05/20 11:05:17;;;;;;;6.77;5.43;;;15.60;46.90;;;;;;5009640;28;20550;-52
2023/05/20 11:07:43;;;;;;;8.90;5.47;;;15.70;43.90;;;;;;5012537;28;20517;-54
2023/05/20 11:10:10;;;;;;;14.93;5.97;;;15.70;48.10;;;;;;4998823;28;20552;-54
2023/05/20 11:12:39;;;;;;;5.47;4.47;;;15.70;49.00;;;;;;5009351;28;20466;-54
2023/05/20 11:15:06;;;;;;;6.37;5.60;;;15.80;44.70;;;;;;5009893;28;20544;-51
2023/05/20 11:17:33;;;;;;;5.50;4.97;;;15.70;55.10;;;;;;5011572;28;20493;-53
2023/05/20 11:20:01;;;;;;;6.53;5.57;;;15.90;44.50;;;;;;5009672;28;20555;-53
2023/05/20 11:22:27;;;;;;;5.90;5.40;;;16.30;49.10;;;;;;5011023;28;20547;-52
2023/05/20 11:24:54;;;;;;;6.30;5.70;;;16.20;87.70;;;;;;5008529;28;20470;-52
2023/05/20 11:27:21;;;;;;;6.07;5.33;;;16.50;80.30;;;;;;5009938;28;20483;-52
2023/05/20 11:29:50;;;;;;;6.97;5.37;;;16.40;71.90;;;;;;5009737;28;20580;-53
2023/05/20 11:32:19;;;;;;;9.47;6.47;;;16.60;82.40;;;;;;5010300;28;20464;-52
2023/05/20 11:34:46;;;;;;;6.90;6.20;;;16.60;96.20;;;;;;5010995;28;21219;-53
2023/05/20 11:37:14;;;;;;;6.70;6.10;;;17.00;99.90;;;;;;5010364;28;21060;-52
2023/05/20 11:39:41;;;;;;;7.37;6.07;;;17.40;99.90;;;;;;5010429;28;20486;-52
2023/05/20 11:42:07;;;;;;;7.63;6.93;;;17.40;99.90;;;;;;5010788;28;20476;-53
2023/05/20 11:44:34;;;;;;;6.70;5.80;;;16.70;99.90;;;;;;5010312;28;20471;-53
2023/05/20 11:47:02;;;;;;;8.23;7.43;;;16.80;99.90;;;;;;5010942;28;20519;-53
2023/05/20 11:49:29;;;;;;;8.70;6.53;;;16.70;99.90;;;;;;5010559;28;20986;-53
2023/05/20 11:51:56;;;;;;;13.43;6.23;;;16.60;99.90;;;;;;5008553;28;20938;-53
2023/05/20 11:54:25;;;;;;;6.80;6.20;;;16.80;99.90;;;;;;5011243;28;20440;-51
2023/05/20 11:56:53;;;;;;;18.40;6.60;;;16.90;99.90;;;;;;5022280;28;20889;-51
2023/05/20 11:59:20;;;;;;;7.33;6.70;;;17.10;99.90;;;;;;5026875;28;20468;-52
2023/05/20 12:01:47;;;;;;;8.03;7.23;;;17.20;99.90;;;;;;5031685;28;20463;-50
2023/05/20 12:04:14;;;;;;;7.77;7.07;;;17.70;99.90;;;;;;5027143;28;20456;-51
2023/05/20 12:06:41;;;;;;;7.87;7.03;;;18.10;24.70;;;;;;5017447;28;20460;-51
2023/05/20 12:09:10;;;;;;;16.60;7.37;;;18.30;49.20;;;;;;5016996;28;20503;-52
2023/05/20 12:11:40;;;;;;;15.23;7.30;;;18.80;79.30;;;;;;5011291;28;20480;-52
2023/05/20 12:14:06;;;;;;;7.23;6.50;;;18.50;99.90;;;;;;5010121;28;20451;-52
2023/05/20 12:16:34;;;;;;;7.03;6.40;;;18.20;90.90;;;;;;5012272;28;20518;-54
2023/05/20 12:19:01;;;;;;;9.80;6.80;;;18.20;90.60;;;;;;5013909;28;20945;-50
2023/05/20 12:21:28;;;;;;;8.03;7.23;;;18.20;82.20;;;;;;5018845;28;20972;-54
2023/05/20 12:23:56;;;;;;;7.60;6.90;;;17.50;73.90;;;;;;5030052;28;20454;-56
2023/05/20 12:26:23;;;;;;;10.37;7.13;;;17.70;61.10;;;;;;5024563;28;20511;-52
2023/05/20 12:28:51;;;;;;;8.80;7.90;;;18.20;41.40;;;;;;5029474;28;20463;-51
2023/05/20 12:31:17;;;;;;;7.70;7.00;;;18.40;54.10;;;;;;5032160;28;20436;-52
2023/05/20 12:33:44;;;;;;;8.13;6.13;;;18.80;84.40;;;;;;5019762;28;20950;-52
2023/05/20 12:36:11;;;;;;;9.17;6.90;;;18.70;90.10;;;;;;5010453;28;20520;-52
2023/05/20 12:38:37;;;;;;;7.83;7.03;;;18.70;86.00;;;;;;5010914;28;20492;-52
2023/05/20 12:41:04;;;;;;;13.00;7.47;;;18.50;89.60;;;;;;5010935;28;20551;-51
2023/05/20 12:43:30;;;;;;;11.93;6.83;;;18.40;83.10;;;;;;5011519;28;20480;-54
2023/05/20 12:45:58;;;;;;;7.83;6.70;;;18.40;94.60;;;;;;5006862;28;20464;-53
2023/05/20 12:48:25;;;;;;;11.40;6.77;;;18.90;95.90;;;;;;5009027;28;20503;-53
2023/05/20 12:50:51;;;;;;;14.77;6.50;;;18.90;99.90;;;;;;5012860;28;20815;-52